createdAt,value
2022-10-18T00:01:12.838Z,7.45
2022-10-18T00:06:10.213Z,7.60
2022-10-18T00:08:39.635Z,8.02
2022-10-18T00:11:07.113Z,7.63
2022-10-18T00:13:41.800Z,8.68
2022-10-18T00:16:12.519Z,8.38
2022-10-18T00:18:39.260Z,8.48
2022-10-18T00:21:17.339Z,7.88
2022-10-18T00:23:44.780Z,7.75
2022-10-18T00:26:17.299Z,8.38
2022-10-18T00:28:44.211Z,8.30
2022-10-18T00:31:24.196Z,8.15
2022-10-18T00:33:53.932Z,8.48
2022-10-18T00:36:20.862Z,8.82
2022-10-18T00:38:48.366Z,8.77
2022-10-18T00:41:18.354Z,8.70
2022-10-18T00:44:11.277Z,9.00
2022-10-18T00:46:42.949Z,7.88
2022-10-18T00:49:16.387Z,8.82
2022-10-18T00:51:57.045Z,8.40
2022-10-18T00:54:24.586Z,8.25
2022-10-18T00:56:54.397Z,8.98
2022-10-18T00:59:21.049Z,9.98
2022-10-18T01:01:47.763Z,8.60
2022-10-18T01:04:19.045Z,9.13
2022-10-18T01:06:49.953Z,9.48
2022-10-18T01:09:44.653Z,9.02
2022-10-18T01:12:26.446Z,10.80
2022-10-18T01:15:06.496Z,10.40
2022-10-18T01:17:42.254Z,9.13
2022-10-18T01:20:38.063Z,9.50
2022-10-18T01:23:19.201Z,10.00
2022-10-18T01:26:37.961Z,9.55
2022-10-18T01:29:41.035Z,10.30
2022-10-18T01:32:16.488Z,10.10
2022-10-18T01:34:47.522Z,9.90
2022-10-18T01:37:17.716Z,10.43
2022-10-18T01:39:46.413Z,10.40
2022-10-18T01:42:17.059Z,9.88
2022-10-18T01:44:45.105Z,10.45
2022-10-18T01:47:13.802Z,11.27
2022-10-18T01:49:40.204Z,10.05
2022-10-18T01:54:40.481Z,10.38
2022-10-18T01:57:14.269Z,10.38
2022-10-18T01:59:51.940Z,9.52
2022-10-18T02:02:50.008Z,10.93
2022-10-18T02:05:28.698Z,10.88
2022-10-18T02:08:24.949Z,10.45
2022-10-18T02:10:57.178Z,13.05
2022-10-18T02:13:27.256Z,11.32
2022-10-18T02:15:59.885Z,11.68
2022-10-18T02:18:36.524Z,10.98
2022-10-18T02:21:05.448Z,11.00
2022-10-18T02:23:33.811Z,11.50
2022-10-18T02:26:00.761Z,11.55
2022-10-18T02:28:27.443Z,10.90
2022-10-18T02:31:06.566Z,13.15
2022-10-18T02:33:55.732Z,12.30
2022-10-18T02:36:43.531Z,12.38
2022-10-18T02:39:20.913Z,12.88
2022-10-18T02:41:47.635Z,14.70
2022-10-18T02:44:14.183Z,15.05
2022-10-18T02:46:40.830Z,12.80
2022-10-18T02:49:14.634Z,13.07
2022-10-18T02:51:41.097Z,12.85
2022-10-18T02:54:08.502Z,13.52
2022-10-18T02:56:44.308Z,13.32
2022-10-18T02:59:18.209Z,13.35
2022-10-18T03:01:45.366Z,13.20
2022-10-18T03:04:11.974Z,12.18
2022-10-18T03:06:39.633Z,13.80
2022-10-18T03:09:06.930Z,12.35
2022-10-18T03:11:43.482Z,13.35
2022-10-18T03:14:09.967Z,14.43
2022-10-18T03:16:37.555Z,13.93
2022-10-18T03:19:04.020Z,13.63
2022-10-18T03:21:41.605Z,14.93
2022-10-18T03:24:08.020Z,14.73
2022-10-18T03:26:34.683Z,13.40
2022-10-18T03:29:01.236Z,13.68
2022-10-18T03:31:32.452Z,14.13
2022-10-18T03:34:00.423Z,15.00
2022-10-18T03:36:28.376Z,14.23
2022-10-18T03:38:54.802Z,13.95
2022-10-18T03:41:28.557Z,14.13
2022-10-18T03:43:55.427Z,14.00
2022-10-18T03:46:25.092Z,16.48
2022-10-18T03:48:51.596Z,14.68
2022-10-18T03:51:18.035Z,14.38
2022-10-18T03:53:44.471Z,14.52
2022-10-18T03:56:14.161Z,14.70
2022-10-18T03:58:40.645Z,16.20
2022-10-18T04:01:14.364Z,15.25
2022-10-18T04:03:40.857Z,14.75
2022-10-18T04:06:09.925Z,15.02
2022-10-18T04:08:45.786Z,14.85
2022-10-18T04:11:12.580Z,15.65
2022-10-18T04:13:39.146Z,15.10
2022-10-18T04:16:05.782Z,15.48
2022-10-18T04:18:32.222Z,15.55
2022-10-18T04:20:58.957Z,16.55
2022-10-18T04:23:27.566Z,15.43
2022-10-18T04:25:53.977Z,15.52
2022-10-18T04:28:20.623Z,14.95
2022-10-18T04:30:53.992Z,15.95
2022-10-18T04:33:21.035Z,17.33
2022-10-18T04:35:52.320Z,15.50
2022-10-18T04:38:20.071Z,15.48
2022-10-18T04:40:46.919Z,16.25
2022-10-18T04:43:20.743Z,16.55
2022-10-18T04:45:48.182Z,17.42
2022-10-18T04:48:26.058Z,17.58
2022-10-18T04:50:52.566Z,16.60
2022-10-18T04:53:19.349Z,15.80
2022-10-18T04:55:52.921Z,16.42
2022-10-18T04:58:19.695Z,17.38
2022-10-18T05:00:47.804Z,15.57
2022-10-18T05:03:15.331Z,15.48
2022-10-18T05:06:02.817Z,16.42
2022-10-18T05:08:30.896Z,15.52
2022-10-18T05:10:57.521Z,14.65
2022-10-18T05:13:24.145Z,16.17
2022-10-18T05:15:50.694Z,14.07
2022-10-18T05:18:34.787Z,14.68
2022-10-18T05:21:01.208Z,15.32
2022-10-18T05:23:32.993Z,14.00
2022-10-18T05:26:04.436Z,13.57
2022-10-18T05:28:40.436Z,14.60
2022-10-18T05:31:09.300Z,14.50
2022-10-18T05:33:36.290Z,14.07
2022-10-18T05:36:03.345Z,15.00
2022-10-18T05:38:33.068Z,15.98
2022-10-18T05:40:59.918Z,15.52
2022-10-18T05:43:29.864Z,14.25
2022-10-18T05:45:56.323Z,15.55
2022-10-18T05:48:22.940Z,14.98
2022-10-18T05:50:49.543Z,15.38
2022-10-18T05:53:35.602Z,15.18
2022-10-18T05:56:03.935Z,15.48
2022-10-18T05:58:35.580Z,15.82
2022-10-18T06:01:03.633Z,16.60
2022-10-18T06:03:31.028Z,15.88
2022-10-18T06:06:09.101Z,15.95
2022-10-18T06:08:36.477Z,15.50
2022-10-18T06:11:19.612Z,16.70
2022-10-18T06:13:48.707Z,15.63
2022-10-18T06:16:17.511Z,16.10
2022-10-18T06:18:47.981Z,16.48
2022-10-18T06:23:44.376Z,17.42
2022-10-18T06:26:13.620Z,17.92
2022-10-18T06:28:40.079Z,18.33
2022-10-18T06:31:08.223Z,17.92
2022-10-18T06:33:43.293Z,17.33
2022-10-18T06:36:24.396Z,17.20
2022-10-18T06:38:52.454Z,16.83
2022-10-18T06:41:19.786Z,16.30
2022-10-18T06:43:50.939Z,18.30
2022-10-18T06:46:19.212Z,17.45
2022-10-18T06:48:46.239Z,18.20
2022-10-18T06:51:12.697Z,18.30
2022-10-18T06:54:05.846Z,16.52
2022-10-18T06:56:35.225Z,15.88
2022-10-18T06:59:01.911Z,16.20
2022-10-18T07:01:33.718Z,16.38
2022-10-18T07:04:03.604Z,16.25
2022-10-18T07:06:30.200Z,16.33
2022-10-18T07:09:03.965Z,16.52
2022-10-18T07:11:30.517Z,15.73
2022-10-18T07:14:02.998Z,15.35
2022-10-18T07:16:32.549Z,15.57
2022-10-18T07:18:59.196Z,15.33
2022-10-18T07:21:28.161Z,16.10
2022-10-18T07:23:56.598Z,16.02
2022-10-18T07:26:27.832Z,15.85
2022-10-18T07:29:01.577Z,14.20
2022-10-18T07:31:36.394Z,14.77
2022-10-18T07:34:08.266Z,14.18
2022-10-18T07:36:35.119Z,14.13
2022-10-18T07:39:09.812Z,15.18
2022-10-18T07:41:39.594Z,13.73
2022-10-18T07:44:06.174Z,13.02
2022-10-18T07:46:32.912Z,13.90
2022-10-18T07:48:59.650Z,13.18
2022-10-18T07:51:26.977Z,13.65
2022-10-18T07:53:53.765Z,12.95
2022-10-18T07:56:21.850Z,13.90
2022-10-18T07:58:54.328Z,13.13
2022-10-18T08:01:22.701Z,12.93
2022-10-18T08:03:49.819Z,12.32
2022-10-18T08:06:18.922Z,13.30
2022-10-18T08:08:46.078Z,13.32
2022-10-18T08:11:18.175Z,13.60
2022-10-18T08:13:47.319Z,13.38
2022-10-18T08:16:22.700Z,13.87
2022-10-18T08:18:50.558Z,12.45
2022-10-18T08:21:18.989Z,13.55
2022-10-18T08:23:48.840Z,12.48
2022-10-18T08:26:18.594Z,12.35
2022-10-18T08:28:53.881Z,13.13
2022-10-18T08:31:31.080Z,12.73
2022-10-18T08:33:57.699Z,12.75
2022-10-18T08:36:27.751Z,13.02
2022-10-18T08:38:54.190Z,12.32
2022-10-18T08:41:37.042Z,12.27
2022-10-18T08:44:23.263Z,12.02
2022-10-18T08:46:53.450Z,11.27
2022-10-18T08:49:29.562Z,12.10
2022-10-18T08:51:58.052Z,11.82
2022-10-18T08:54:31.636Z,12.55
2022-10-18T08:57:00.852Z,12.60
2022-10-18T08:59:33.485Z,12.63
2022-10-18T09:02:10.965Z,11.48
2022-10-18T09:04:43.952Z,12.00
2022-10-18T09:07:42.922Z,10.80
2022-10-18T09:10:40.904Z,11.02
2022-10-18T09:13:32.470Z,10.63
2022-10-18T09:16:01.112Z,10.88
2022-10-18T09:18:51.098Z,10.52
2022-10-18T09:21:23.561Z,10.38
2022-10-18T09:24:14.308Z,10.45
2022-10-18T09:26:49.752Z,11.40
2022-10-18T09:29:16.302Z,10.40
2022-10-18T09:31:56.894Z,10.43
2022-10-18T09:34:33.493Z,10.82
2022-10-18T09:37:00.064Z,10.13
2022-10-18T09:39:44.456Z,10.30
2022-10-18T09:42:26.993Z,10.18
2022-10-18T09:45:16.224Z,9.60
2022-10-18T09:47:48.193Z,10.60
2022-10-18T09:50:37.585Z,9.30
2022-10-18T09:53:20.214Z,10.00
2022-10-18T09:55:49.687Z,9.20
2022-10-18T09:58:18.350Z,10.03
2022-10-18T10:00:49.186Z,9.43
2022-10-18T10:03:15.899Z,9.77
2022-10-18T10:05:43.590Z,10.02
2022-10-18T10:08:11.128Z,9.25
2022-10-18T10:10:46.064Z,9.60
2022-10-18T10:13:24.734Z,9.20
2022-10-18T10:16:01.426Z,8.95
2022-10-18T10:18:33.420Z,9.55
2022-10-18T10:21:03.485Z,9.65
2022-10-18T10:23:45.749Z,8.52
2022-10-18T10:26:28.909Z,8.88
2022-10-18T10:28:55.396Z,8.77
2022-10-18T10:31:24.881Z,10.45
2022-10-18T10:34:17.501Z,7.90
2022-10-18T10:36:53.265Z,7.30
2022-10-18T10:39:22.550Z,6.60
2022-10-18T10:41:58.530Z,7.10
2022-10-18T10:44:34.096Z,6.22
2022-10-18T10:47:00.555Z,6.68
2022-10-18T10:49:44.066Z,6.50
2022-10-18T10:52:28.791Z,7.32
2022-10-18T10:57:48.536Z,5.85
2022-10-18T11:00:33.717Z,6.30
2022-10-18T11:03:27.292Z,6.38
2022-10-18T11:05:55.726Z,6.18
2022-10-18T11:08:26.601Z,5.47
2022-10-18T11:11:16.954Z,5.78
2022-10-18T11:14:26.179Z,6.32
2022-10-18T11:17:17.911Z,6.53
2022-10-18T11:20:23.647Z,5.82
2022-10-18T11:23:02.377Z,5.70
2022-10-18T11:25:41.118Z,6.20
2022-10-18T11:28:33.786Z,5.78
2022-10-18T11:31:17.587Z,6.90
2022-10-18T11:34:08.185Z,6.53
2022-10-18T11:36:57.856Z,6.47
2022-10-18T11:40:21.010Z,9.90
2022-10-18T11:43:03.604Z,6.63
2022-10-18T11:45:56.842Z,10.60
2022-10-18T11:48:29.325Z,6.68
2022-10-18T11:51:07.104Z,6.38
2022-10-18T11:53:42.896Z,6.50
2022-10-18T11:56:44.490Z,6.40
2022-10-18T11:59:16.911Z,6.30
2022-10-18T12:01:55.186Z,7.78
2022-10-18T12:04:27.904Z,6.03
2022-10-18T12:06:57.056Z,5.95
2022-10-18T12:09:29.037Z,6.07
2022-10-18T12:12:02.752Z,5.93
2022-10-18T12:14:40.398Z,6.25
2022-10-18T12:17:40.767Z,6.07
2022-10-18T12:20:11.012Z,6.05
2022-10-18T12:22:37.410Z,6.13
2022-10-18T12:25:04.739Z,6.65
2022-10-18T12:27:46.431Z,6.53
2022-10-18T12:30:24.819Z,6.18
2022-10-18T12:33:23.502Z,5.95
2022-10-18T12:36:22.010Z,6.22
2022-10-18T12:38:57.333Z,6.25
2022-10-18T12:41:30.396Z,6.40
2022-10-18T12:44:18.504Z,6.40
2022-10-18T12:46:56.161Z,5.88
2022-10-18T12:49:29.786Z,6.10
2022-10-18T12:51:59.687Z,6.50
2022-10-18T12:54:35.861Z,6.18
2022-10-18T12:57:05.840Z,6.00
2022-10-18T12:59:32.274Z,6.22
2022-10-18T13:02:04.880Z,5.88
2022-10-18T13:04:32.522Z,5.72
2022-10-18T13:07:05.148Z,5.85
2022-10-18T13:09:37.559Z,6.25
2022-10-18T13:12:10.147Z,5.53
2022-10-18T13:15:24.980Z,5.53
2022-10-18T13:18:02.237Z,5.28
2022-10-18T13:20:40.478Z,5.38
2022-10-18T13:23:42.768Z,5.68
2022-10-18T13:26:36.646Z,5.97
2022-10-18T13:29:09.540Z,5.70
2022-10-18T13:31:54.456Z,5.85
2022-10-18T13:34:25.291Z,5.93
2022-10-18T13:37:01.047Z,5.45
2022-10-18T13:39:29.089Z,6.43
2022-10-18T13:42:01.928Z,5.80
2022-10-18T13:44:43.596Z,6.38
2022-10-18T13:47:33.672Z,6.15
2022-10-18T13:50:14.461Z,5.70
2022-10-18T13:52:59.124Z,5.57
2022-10-18T13:55:49.784Z,5.60
2022-10-18T13:59:05.851Z,5.28
2022-10-18T14:01:40.308Z,5.70
2022-10-18T14:04:44.761Z,5.10
2022-10-18T14:07:12.055Z,4.97
2022-10-18T14:09:54.867Z,5.05
2022-10-18T14:12:43.785Z,4.80
2022-10-18T14:15:33.853Z,5.07
2022-10-18T14:18:16.450Z,5.25
2022-10-18T14:21:01.574Z,5.00
2022-10-18T14:23:40.004Z,5.07
2022-10-18T14:26:14.785Z,4.85
2022-10-18T14:28:59.040Z,5.47
2022-10-18T14:31:27.419Z,5.05
2022-10-18T14:33:58.356Z,4.72
2022-10-18T14:36:39.748Z,5.20
2022-10-18T14:39:07.457Z,5.00
2022-10-18T14:41:38.552Z,5.10
2022-10-18T14:44:14.530Z,5.25
2022-10-18T14:46:58.412Z,5.30
2022-10-18T14:49:26.579Z,6.07
2022-10-18T14:52:00.367Z,5.20
2022-10-18T14:54:32.735Z,5.38
2022-10-18T14:57:04.481Z,5.10
2022-10-18T14:59:44.927Z,5.13
2022-10-18T15:04:46.685Z,4.80
2022-10-18T15:07:16.405Z,5.15
2022-10-18T15:09:44.872Z,4.78
2022-10-18T15:12:18.311Z,4.88
2022-10-18T15:15:00.260Z,4.75
2022-10-18T15:17:32.024Z,4.47
2022-10-18T15:20:05.050Z,4.50
2022-10-18T15:22:40.611Z,5.20
2022-10-18T15:25:31.820Z,4.10
2022-10-18T15:30:52.214Z,5.72
2022-10-18T15:33:26.325Z,4.68
2022-10-18T15:36:17.206Z,4.47
2022-10-18T15:38:57.880Z,5.18
2022-10-18T15:41:54.489Z,5.10
2022-10-18T15:44:23.742Z,4.70
2022-10-18T15:47:15.826Z,4.47
2022-10-18T15:49:46.870Z,4.28
2022-10-18T15:52:37.839Z,4.60
2022-10-18T15:55:34.731Z,4.30
2022-10-18T15:58:07.605Z,4.45
2022-10-18T16:00:35.592Z,4.57
2022-10-18T16:03:09.666Z,4.30
2022-10-18T16:05:40.594Z,4.05
2022-10-18T16:08:42.569Z,4.20
2022-10-18T16:11:24.573Z,3.70
2022-10-18T16:14:07.425Z,4.22
2022-10-18T16:16:36.623Z,4.80
2022-10-18T16:19:07.529Z,4.85
2022-10-18T16:21:57.190Z,6.15
2022-10-18T16:26:53.830Z,5.35
2022-10-18T16:29:27.116Z,4.55
2022-10-18T16:31:58.177Z,5.07
2022-10-18T16:34:28.785Z,6.35
2022-10-18T16:39:22.989Z,15.73
2022-10-18T16:41:51.500Z,12.55
2022-10-18T16:44:19.163Z,28.77
2022-10-18T16:46:46.642Z,5.82
2022-10-18T16:49:24.384Z,6.13
2022-10-18T16:51:52.857Z,5.40
2022-10-18T16:54:19.757Z,4.82
2022-10-18T16:56:48.154Z,6.57
2022-10-18T16:59:24.417Z,6.25
2022-10-18T17:01:51.420Z,97.68
2022-10-18T17:04:17.981Z,25.40
2022-10-18T17:06:49.164Z,8.70
2022-10-18T17:09:16.121Z,9.65
2022-10-18T17:11:44.644Z,6.88
2022-10-18T17:14:18.773Z,4.40
2022-10-18T17:16:48.241Z,3.92
2022-10-18T17:19:19.378Z,4.03
2022-10-18T17:21:46.165Z,4.97
2022-10-18T17:24:12.852Z,5.05
2022-10-18T17:26:39.308Z,4.07
2022-10-18T17:29:08.171Z,4.30
2022-10-18T17:31:35.925Z,6.03
2022-10-18T17:34:02.721Z,4.40
2022-10-18T17:36:31.013Z,6.30
2022-10-18T17:38:57.779Z,4.60
2022-10-18T17:41:24.376Z,4.55
2022-10-18T17:43:50.818Z,4.03
2022-10-18T17:46:18.328Z,3.90
2022-10-18T17:48:44.888Z,5.53
2022-10-18T17:51:16.158Z,6.00
2022-10-18T17:53:53.188Z,11.95
2022-10-18T17:56:23.463Z,4.90
2022-10-18T17:59:01.041Z,4.00
2022-10-18T18:01:29.821Z,3.80
2022-10-18T18:04:02.783Z,4.25
2022-10-18T18:06:42.728Z,4.88
2022-10-18T18:09:19.652Z,5.50
2022-10-18T18:11:51.395Z,6.47
2022-10-18T18:14:19.038Z,6.15
2022-10-18T18:16:58.180Z,4.05
2022-10-18T18:19:29.240Z,5.20
2022-10-18T18:21:59.596Z,6.53
2022-10-18T18:24:36.134Z,4.57
2022-10-18T18:27:07.369Z,4.70
2022-10-18T18:29:40.434Z,4.03
2022-10-18T18:32:11.479Z,4.30
2022-10-18T18:34:45.586Z,4.13
2022-10-18T18:37:24.826Z,4.00
2022-10-18T18:39:53.458Z,3.90
2022-10-18T18:42:20.640Z,4.45
2022-10-18T18:44:52.803Z,4.50
2022-10-18T18:47:21.987Z,5.10
2022-10-18T18:49:48.856Z,5.82
2022-10-18T18:52:16.985Z,6.25
2022-10-18T18:54:48.932Z,5.95
2022-10-18T18:57:16.709Z,8.02
2022-10-18T18:59:43.251Z,10.32
2022-10-18T19:02:11.514Z,5.30
2022-10-18T19:04:44.345Z,4.70
2022-10-18T19:07:11.066Z,5.40
2022-10-18T19:09:42.095Z,8.07
2022-10-18T19:12:09.649Z,4.60
2022-10-18T19:14:36.893Z,5.75
2022-10-18T19:17:07.890Z,4.55
2022-10-18T19:19:37.138Z,4.10
2022-10-18T19:22:05.024Z,3.60
2022-10-18T19:24:32.293Z,4.10
2022-10-18T19:27:03.834Z,4.00
2022-10-18T19:29:34.083Z,3.60
2022-10-18T19:32:03.849Z,4.40
2022-10-18T19:34:34.702Z,3.92
2022-10-18T19:37:01.589Z,4.20
2022-10-18T19:39:33.426Z,4.22
2022-10-18T19:42:03.508Z,4.00
2022-10-18T19:44:35.866Z,3.80
2022-10-18T19:47:08.578Z,4.00
2022-10-18T19:49:36.518Z,4.30
2022-10-18T19:52:03.091Z,4.32
2022-10-18T19:54:32.829Z,4.30
2022-10-18T19:57:00.828Z,4.05
2022-10-18T19:59:27.421Z,4.15
2022-10-18T20:01:55.056Z,4.20
2022-10-18T20:04:21.521Z,3.92
2022-10-18T20:06:48.218Z,4.57
2022-10-18T20:09:19.321Z,3.63
2022-10-18T20:11:47.263Z,3.67
2022-10-18T20:14:13.665Z,4.30
2022-10-18T20:16:40.944Z,5.22
2022-10-18T20:19:07.767Z,4.18
2022-10-18T20:21:35.995Z,3.90
2022-10-18T20:24:04.687Z,3.95
2022-10-18T20:26:35.965Z,4.25
2022-10-18T20:29:03.750Z,4.00
2022-10-18T20:31:35.950Z,3.85
2022-10-18T20:34:05.236Z,4.30
2022-10-18T20:36:32.694Z,3.90
2022-10-18T20:39:00.265Z,3.83
2022-10-18T20:41:34.267Z,3.92
2022-10-18T20:44:07.183Z,4.10
2022-10-18T20:46:36.598Z,3.60
2022-10-18T20:49:04.642Z,4.05
2022-10-18T20:51:33.670Z,4.10
2022-10-18T20:56:35.517Z,3.50
2022-10-18T21:01:37.366Z,3.42
2022-10-18T21:04:06.269Z,3.72
2022-10-18T21:06:38.257Z,4.20
2022-10-18T21:09:08.179Z,3.90
2022-10-18T21:11:37.715Z,4.38
2022-10-18T21:14:05.290Z,3.90
2022-10-18T21:16:40.770Z,4.05
2022-10-18T21:19:26.269Z,3.83
2022-10-18T21:21:57.296Z,4.00
2022-10-18T21:24:25.543Z,4.20
2022-10-18T21:26:52.172Z,4.18
2022-10-18T21:29:22.314Z,4.10
2022-10-18T21:31:49.414Z,3.55
2022-10-18T21:34:17.433Z,4.13
2022-10-18T21:36:45.707Z,4.13
2022-10-18T21:39:18.395Z,4.40
2022-10-18T21:41:45.322Z,4.00
2022-10-18T21:44:12.133Z,4.35
2022-10-18T21:46:40.555Z,4.05
2022-10-18T21:49:08.380Z,3.97
2022-10-18T21:51:35.362Z,3.85
2022-10-18T21:54:02.123Z,4.00
2022-10-18T21:56:33.351Z,3.90
2022-10-18T21:59:05.849Z,3.70
2022-10-18T22:01:37.679Z,4.13
2022-10-18T22:04:07.378Z,4.03
2022-10-18T22:09:08.405Z,3.83
2022-10-18T22:11:48.610Z,4.20
2022-10-18T22:14:15.045Z,4.10
2022-10-18T22:16:41.761Z,4.00
2022-10-18T22:19:08.268Z,4.63
2022-10-18T22:21:35.641Z,4.28
2022-10-18T22:24:05.389Z,4.15
2022-10-18T22:26:40.591Z,4.00
2022-10-18T22:29:12.464Z,3.83
2022-10-18T22:31:41.824Z,3.90
2022-10-18T22:34:12.595Z,4.10
2022-10-18T22:36:39.151Z,4.00
2022-10-18T22:39:06.952Z,3.85
2022-10-18T22:41:34.309Z,3.92
2022-10-18T22:44:03.530Z,3.88
2022-10-18T22:46:30.937Z,4.18
2022-10-18T22:48:57.372Z,4.20
2022-10-18T22:51:24.286Z,4.22
2022-10-18T22:53:50.744Z,4.25
2022-10-18T22:56:19.711Z,3.85
2022-10-18T22:58:46.161Z,4.35
2022-10-18T23:01:15.405Z,4.25
2022-10-18T23:03:41.938Z,4.03
2022-10-18T23:06:22.427Z,3.88
2022-10-18T23:11:16.893Z,4.10
2022-10-18T23:13:43.313Z,4.30
2022-10-18T23:16:17.977Z,4.60
2022-10-18T23:18:48.568Z,3.88
2022-10-18T23:21:15.516Z,3.90
2022-10-18T23:23:42.713Z,3.92
2022-10-18T23:26:15.801Z,4.57
2022-10-18T23:28:45.028Z,4.57
2022-10-18T23:31:19.998Z,4.00
2022-10-18T23:33:48.439Z,4.38
2022-10-18T23:36:15.104Z,4.50
2022-10-18T23:38:45.798Z,4.43
2022-10-18T23:41:14.361Z,4.53
2022-10-18T23:43:41.454Z,4.32
2022-10-18T23:46:08.977Z,4.00
2022-10-18T23:48:37.873Z,4.38
2022-10-18T23:51:04.999Z,3.88
2022-10-18T23:53:31.901Z,4.10
2022-10-18T23:56:01.261Z,3.90
2022-10-18T23:58:29.576Z,3.90
